Antioch, Nebraska
Current Conditions -  °F | °C
As of 1:53 AM on Monday 24 Nov 2014 (Local Time) from KAIA Reporting Station
Clear Clear  
Wind Chill: 13°   Ceiling: Unl
Heat Index: 26°   Visibility: 10mi
Dew Point: 16°   Wind: 17mph
Humidity: 66%   Direction: 290°WNW
Pressure: 29.75"   Gusts: NA
Location:  42.1734°N, 102.461°W
Report Text: KAIA 240853Z AUTO 29015KT 10SM CLR M03/M09 A2975 RMK AO2 SLP091 T10331089 55002
Loading
Personal Weather Stations






























Interactive Weather Map New forecast layout! Learn more

10-Day Weather Forecast

Advertisements
Track Severe Weather on mobile